Time;durP1;ratioP1;P1;durP2;ratioP2;P2;SDS_P1;SDS_P2;PMS_P1;PMS_P2;Temp;Humidity;BMP_temperature;BMP_pressure;BME280_temperature;BME280_humidity;BME280_pressure;Samples;Min_cycle;Max_cycle;Signal;HPM_P1;HPM_P2
2023/11/29 00:01:31;;;;;;;19.70;11.00;;;;;;;4.42;100.00;98885.56;4987270;28;20023;-68
2023/11/29 00:03:56;;;;;;;29.75;17.10;;;;;;;3.96;100.00;98787.72;4991584;28;20102;-69
2023/11/29 00:06:22;;;;;;;27.55;14.82;;;;;;;4.40;100.00;98874.41;4991927;28;20014;-73
2023/11/29 00:08:47;;;;;;;29.70;16.55;;;;;;;4.49;100.00;98887.53;4991595;28;20073;-71
2023/11/29 00:11:13;;;;;;;25.20;15.15;;;;;;;4.15;100.00;98827.53;4992534;28;20029;-69
2023/11/29 00:13:39;;;;;;;25.02;15.43;;;;;;;4.57;100.00;98878.44;4991736;28;20049;-69
2023/11/29 00:16:05;;;;;;;31.00;16.42;;;;;;;4.50;100.00;98862.03;4990814;28;20026;-72
2023/11/29 00:18:31;;;;;;;26.63;15.50;;;;;;;4.69;100.00;98885.66;4991557;28;20022;-69
2023/11/29 00:21:01;;;;;;;29.27;15.88;;;;;;;4.81;100.00;98896.31;4991023;28;20378;-69
2023/11/29 00:23:26;;;;;;;27.38;15.93;;;;;;;4.84;100.00;98886.19;4991631;28;20038;-69
2023/11/29 00:25:52;;;;;;;29.02;17.33;;;;;;;4.87;100.00;98877.75;4992411;28;20041;-70
2023/11/29 00:28:17;;;;;;;26.85;16.30;;;;;;;4.81;100.00;98864.75;4991766;28;20030;-68
2023/11/29 00:30:43;;;;;;;28.90;17.27;;;;;;;4.77;100.00;98855.25;4991876;28;20100;-71
2023/11/29 00:33:08;;;;;;;29.10;16.23;;;;;;;5.05;100.00;98899.63;4991471;28;20049;-69
2023/11/29 00:35:34;;;;;;;32.78;17.75;;;;;;;4.98;100.00;98889.19;4992036;28;20037;-69
2023/11/29 00:38:00;;;;;;;32.80;17.38;;;;;;;4.88;100.00;98879.50;4991127;28;20027;-69
2023/11/29 00:40:25;;;;;;;31.92;17.83;;;;;;;5.10;100.00;98903.25;4990481;28;20080;-68
2023/11/29 00:42:51;;;;;;;30.05;17.48;;;;;;;4.94;100.00;98889.94;4990868;28;20038;-69
2023/11/29 00:45:36;;;;;;;32.30;18.27;;;;;;;5.00;100.00;98905.47;4980105;28;20085;-68
2023/11/29 00:48:02;;;;;;;31.38;16.85;;;;;;;5.00;100.00;98910.59;4989309;28;20048;-70
2023/11/29 00:50:27;;;;;;;31.73;15.93;;;;;;;5.07;100.00;98931.25;4989798;28;20576;-69
2023/11/29 00:52:53;;;;;;;30.60;16.85;;;;;;;4.62;100.00;98864.16;4989847;28;20438;-66
2023/11/29 00:55:18;;;;;;;28.75;16.25;;;;;;;4.99;100.00;98898.63;5000868;28;20069;-71
2023/11/29 00:57:44;;;;;;;27.55;15.60;;;;;;;5.07;100.00;98910.81;5008285;28;20125;-67
2023/11/29 01:00:10;;;;;;;29.50;16.00;;;;;;;5.08;100.00;98892.94;5008536;28;20104;-69
2023/11/29 01:02:38;;;;;;;29.83;16.80;;;;;;;5.00;100.00;98877.34;5008105;28;20136;-71
2023/11/29 01:05:04;;;;;;;28.17;16.05;;;;;;;5.19;100.00;98889.03;5008218;28;20052;-72
2023/11/29 01:07:29;;;;;;;28.70;15.77;;;;;;;5.25;100.00;98888.41;5007832;28;20042;-71
2023/11/29 01:09:55;;;;;;;26.42;16.38;;;;;;;5.31;100.00;98880.91;4991169;28;20052;-69
2023/11/29 01:12:20;;;;;;;25.05;14.77;;;;;;;5.32;100.00;98868.97;5007171;28;20495;-70
2023/11/29 01:14:47;;;;;;;26.17;15.23;;;;;;;5.41;100.00;98876.97;5007751;28;20580;-68
2023/11/29 01:17:13;;;;;;;25.48;14.50;;;;;;;4.51;100.00;98727.44;5007166;28;20021;-70
2023/11/29 01:19:39;;;;;;;24.70;14.02;;;;;;;5.41;100.00;98894.88;4994270;28;20043;-71
2023/11/29 01:22:04;;;;;;;26.75;14.68;;;;;;;5.13;100.00;98847.91;4990792;28;20751;-70
2023/11/29 01:24:30;;;;;;;26.77;14.75;;;;;;;5.28;100.00;98906.41;4991098;28;20097;-71
2023/11/29 01:27:15;;;;;;;24.40;13.80;;;;;;;5.12;100.00;98893.91;5005188;28;20125;-70
2023/11/29 01:29:41;;;;;;;27.90;14.88;;;;;;;5.09;100.00;98899.81;5007718;28;20120;-68
2023/11/29 01:32:07;;;;;;;27.23;15.00;;;;;;;4.63;100.00;98824.97;4991005;28;20161;-69
2023/11/29 01:34:32;;;;;;;24.02;14.18;;;;;;;4.98;100.00;98896.88;5007516;28;20042;-70
2023/11/29 01:36:58;;;;;;;27.15;14.43;;;;;;;4.65;100.00;98848.91;5007913;28;20452;-69
2023/11/29 01:39:23;;;;;;;25.42;13.30;;;;;;;4.97;100.00;98889.16;5007691;28;20540;-68
2023/11/29 01:41:49;;;;;;;26.95;12.88;;;;;;;5.10;100.00;98909.22;5007982;28;20041;-69
2023/11/29 01:44:15;;;;;;;24.88;13.95;;;;;;;4.95;100.00;98878.03;5007581;28;20073;-71
2023/11/29 01:46:40;;;;;;;27.55;12.88;;;;;;;5.08;100.00;98892.94;5007432;28;20029;-71
2023/11/29 01:49:07;;;;;;;24.98;13.57;;;;;;;5.29;100.00;98923.47;5006837;28;20042;-72
2023/11/29 01:51:32;;;;;;;23.42;12.68;;;;;;;5.15;100.00;98894.03;5007351;28;20041;-71
2023/11/29 01:54:00;;;;;;;23.10;14.02;;;;;;;5.15;100.00;98897.44;5006021;28;20038;-71
2023/11/29 01:56:26;;;;;;;21.35;13.48;;;;;;;5.14;100.00;98907.63;5007565;28;20042;-68
2023/11/29 01:58:52;;;;;;;24.48;14.32;;;;;;;5.29;100.00;98933.72;5007448;28;20124;-69
2023/11/29 02:01:18;;;;;;;25.92;15.27;;;;;;;5.38;100.00;98925.47;4994047;28;20117;-69
2023/11/29 02:03:44;;;;;;;26.00;14.88;;;;;;;4.85;100.00;98826.56;4989207;28;20080;-69
2023/11/29 02:06:11;;;;;;;26.05;17.05;;;;;;;5.02;100.00;98852.69;4990506;28;20076;-69
2023/11/29 02:08:36;;;;;;;25.58;15.45;;;;;;;5.38;100.00;98920.34;4988654;28;20038;-70
2023/11/29 02:11:02;;;;;;;30.90;16.10;;;;;;;5.35;100.00;98928.81;4977815;28;20109;-69
2023/11/29 02:13:28;;;;;;;32.83;16.60;;;;;;;5.26;100.00;98936.19;4990430;28;20031;-73
2023/11/29 02:15:53;;;;;;;32.15;17.80;;;;;;;4.56;100.00;98820.50;4989854;28;20060;-70
2023/11/29 02:18:18;;;;;;;34.63;19.27;;;;;;;5.08;100.00;98912.53;4990658;28;20046;-72
2023/11/29 02:20:44;;;;;;;31.77;17.17;;;;;;;5.30;100.00;98945.69;4990336;28;20041;-70
2023/11/29 02:24:01;;;;;;;31.48;17.17;;;;;;;5.37;100.00;98956.13;4990292;28;20034;-73
2023/11/29 02:26:29;;;;;;;29.52;17.20;;;;;;;5.22;100.00;98920.69;5000728;28;20607;-69
2023/11/29 02:28:54;;;;;;;30.23;17.92;;;;;;;5.37;100.00;98931.44;5007910;28;20056;-70
2023/11/29 02:31:20;;;;;;;31.88;18.42;;;;;;;5.48;100.00;98959.91;5010979;28;20054;-69
2023/11/29 02:33:45;;;;;;;27.17;17.98;;;;;;;5.55;100.00;98968.69;5007593;28;20022;-71
2023/11/29 02:36:11;;;;;;;29.90;17.58;;;;;;;5.37;100.00;98944.22;5010946;28;20038;-70
2023/11/29 02:38:36;;;;;;;31.17;17.52;;;;;;;5.58;100.00;98976.47;5010621;28;20558;-68
2023/11/29 02:41:02;;;;;;;30.17;18.15;;;;;;;5.58;100.00;98987.59;5010789;28;20164;-70
2023/11/29 02:43:27;;;;;;;30.27;18.38;;;;;;;5.49;100.00;98965.09;5010505;28;20042;-71
2023/11/29 02:45:53;;;;;;;31.73;17.48;;;;;;;5.46;100.00;98953.91;4994316;28;20026;-69
2023/11/29 02:48:18;;;;;;;29.52;18.35;;;;;;;5.53;100.00;98971.19;5010869;28;20105;-75
2023/11/29 02:50:44;;;;;;;28.55;17.38;;;;;;;5.63;100.00;99008.19;5010880;28;20515;-68
2023/11/29 02:53:11;;;;;;;33.63;16.90;;;;;;;5.47;100.00;98997.47;5009962;28;20140;-71
2023/11/29 02:55:36;;;;;;;25.52;15.60;;;;;;;5.27;100.00;98971.19;4994280;28;20706;-69
2023/11/29 02:58:02;;;;;;;30.45;19.10;;;;;;;4.99;100.00;98933.56;5010859;28;20105;-71
2023/11/29 03:00:28;;;;;;;30.05;17.83;;;;;;;5.33;100.00;98985.88;5010390;28;20065;-69
2023/11/29 03:02:55;;;;;;;34.08;17.95;;;;;;;5.41;100.00;99012.59;4991808;28;20038;-71
2023/11/29 03:05:20;;;;;;;29.10;18.33;;;;;;;5.42;100.00;99022.03;4993680;28;20077;-69
2023/11/29 03:07:46;;;;;;;32.50;18.27;;;;;;;5.43;100.00;99031.47;4993622;28;20038;-72
2023/11/29 03:10:11;;;;;;;30.27;18.45;;;;;;;5.39;100.00;99031.28;4992924;28;20030;-74
2023/11/29 03:12:37;;;;;;;31.38;18.80;;;;;;;5.27;100.00;99031.72;4993586;28;20036;-69
2023/11/29 03:15:03;;;;;;;35.70;19.38;;;;;;;5.18;100.00;99030.59;4993349;28;20404;-71
2023/11/29 03:17:29;;;;;;;33.72;19.42;;;;;;;5.32;100.00;99051.56;4993243;28;20034;-71
2023/11/29 03:19:54;;;;;;;33.25;19.15;;;;;;;4.90;100.00;98976.72;4993059;28;20031;-70
2023/11/29 03:22:19;;;;;;;36.20;18.73;;;;;;;4.84;100.00;98941.56;4993319;28;20401;-70
2023/11/29 03:24:46;;;;;;;36.67;20.90;;;;;;;5.30;100.00;99014.78;4993212;28;20105;-70
2023/11/29 03:27:12;;;;;;;37.72;19.70;;;;;;;5.48;100.00;99039.28;4993577;28;20081;-69
2023/11/29 03:29:37;;;;;;;31.05;18.60;;;;;;;5.50;100.00;99046.19;4993560;28;20027;-70
2023/11/29 03:32:03;;;;;;;28.40;17.50;;;;;;;5.43;100.00;99020.34;4993503;28;20077;-69
2023/11/29 03:34:29;;;;;;;33.70;18.05;;;;;;;5.49;100.00;99051.25;5008476;28;20062;-69
2023/11/29 03:36:54;;;;;;;34.97;17.35;;;;;;;5.05;100.00;98984.03;4993337;28;20081;-69
2023/11/29 03:39:20;;;;;;;30.55;18.73;;;;;;;5.48;100.00;99070.00;4993000;28;20058;-69
2023/11/29 03:41:47;;;;;;;32.80;18.65;;;;;;;4.87;100.00;98969.78;4992625;28;20113;-70
2023/11/29 03:44:13;;;;;;;33.45;17.63;;;;;;;5.36;100.00;99067.88;4993327;28;20026;-69
2023/11/29 03:46:38;;;;;;;32.30;17.05;;;;;;;5.19;100.00;99073.25;4993550;28;20097;-69
2023/11/29 03:49:04;;;;;;;33.85;17.00;;;;;;;5.11;100.00;99076.34;4993450;28;20030;-70
2023/11/29 03:51:29;;;;;;;30.08;16.60;;;;;;;4.99;100.00;99064.88;4993294;28;20439;-70
2023/11/29 03:53:55;;;;;;;29.33;16.30;;;;;;;5.08;100.00;99082.22;4993374;28;20038;-68
2023/11/29 03:56:20;;;;;;;35.72;19.63;;;;;;;5.14;100.00;99077.34;4993457;28;20030;-69
2023/11/29 03:58:46;;;;;;;31.95;17.90;;;;;;;5.22;100.00;99097.22;4993061;28;20521;-69
2023/11/29 04:01:11;;;;;;;32.17;18.33;;;;;;;5.22;100.00;99098.09;4992553;28;20035;-70
2023/11/29 04:03:37;;;;;;;35.40;17.25;;;;;;;5.22;100.00;99104.91;5007947;28;20034;-70
2023/11/29 04:06:02;;;;;;;29.05;17.73;;;;;;;5.22;100.00;99113.47;4992693;28;20057;-72
2023/11/29 04:08:28;;;;;;;30.35;17.40;;;;;;;5.19;100.00;99123.56;4992846;28;20039;-69
2023/11/29 04:10:54;;;;;;;28.42;17.25;;;;;;;5.09;100.00;99118.94;4992854;28;20377;-70
2023/11/29 04:13:19;;;;;;;31.38;16.77;;;;;;;5.00;100.00;99128.00;4993057;28;20030;-69
2023/11/29 04:15:45;;;;;;;32.55;18.50;;;;;;;4.97;100.00;99133.00;4992759;28;20038;-70
2023/11/29 04:18:10;;;;;;;31.70;17.75;;;;;;;4.92;100.00;99131.97;4992823;28;20042;-68
2023/11/29 04:20:36;;;;;;;32.20;18.05;;;;;;;4.92;100.00;99139.66;4992710;28;20405;-69
2023/11/29 04:23:01;;;;;;;38.35;18.45;;;;;;;4.97;100.00;99144.91;4992214;28;20026;-69
2023/11/29 04:25:27;;;;;;;32.10;17.63;;;;;;;4.96;100.00;99151.72;4992584;28;20026;-70
2023/11/29 04:27:52;;;;;;;34.50;18.33;;;;;;;4.92;100.00;99144.75;4992470;28;20041;-69
2023/11/29 04:30:18;;;;;;;32.00;17.85;;;;;;;4.52;100.00;99067.41;4992384;28;20121;-69
2023/11/29 04:32:44;;;;;;;37.65;18.85;;;;;;;5.01;100.00;99150.22;4992568;28;20453;-69
2023/11/29 04:35:09;;;;;;;30.45;17.85;;;;;;;5.04;100.00;99158.81;4992279;28;20557;-69
2023/11/29 04:37:35;;;;;;;33.30;18.33;;;;;;;5.04;100.00;99140.91;4992525;28;20030;-70
2023/11/29 04:40:00;;;;;;;31.77;18.73;;;;;;;4.68;100.00;99081.63;4992367;28;20394;-69
2023/11/29 04:42:26;;;;;;;42.78;24.00;;;;;;;5.02;100.00;99148.50;4992263;28;20030;-70
2023/11/29 04:44:51;;;;;;;30.40;17.33;;;;;;;4.70;100.00;99099.59;4991725;28;20026;-70
2023/11/29 04:47:18;;;;;;;32.83;17.83;;;;;;;4.95;100.00;99152.53;4992083;28;20031;-68
2023/11/29 04:49:43;;;;;;;39.38;20.23;;;;;;;4.86;100.00;99139.41;4991977;28;20041;-69
2023/11/29 04:52:09;;;;;;;36.30;19.08;;;;;;;4.82;100.00;99146.09;4991933;28;20031;-69
2023/11/29 04:54:34;;;;;;;35.47;16.48;;;;;;;4.68;100.00;99162.56;4991926;28;20026;-69
2023/11/29 04:57:00;;;;;;;29.17;16.35;;;;;;;4.67;100.00;99171.03;4992013;28;20034;-70
2023/11/29 04:59:25;;;;;;;29.88;17.83;;;;;;;4.01;100.00;99074.75;4992188;28;20093;-69
2023/11/29 05:01:51;;;;;;;33.08;17.80;;;;;;;4.64;100.00;99194.81;4989466;28;20463;-69
2023/11/29 05:04:18;;;;;;;27.80;16.65;;;;;;;4.04;100.00;99098.72;4992265;28;20066;-70
2023/11/29 05:06:44;;;;;;;29.02;16.17;;;;;;;4.54;100.00;99201.22;4989502;28;20393;-70
2023/11/29 05:09:14;;;;;;;29.73;16.48;;;;;;;4.70;100.00;99206.97;4991932;28;20033;-70
2023/11/29 05:11:40;;;;;;;29.35;16.67;;;;;;;4.72;100.00;99214.69;4991493;28;20077;-69
2023/11/29 05:14:05;;;;;;;28.77;16.90;;;;;;;4.73;100.00;99201.97;4991974;28;20030;-72
2023/11/29 05:16:33;;;;;;;27.90;16.38;;;;;;;4.74;100.00;99208.81;4991727;28;20038;-70
2023/11/29 05:18:59;;;;;;;32.72;18.08;;;;;;;4.77;100.00;99218.31;4991529;28;20037;-68
2023/11/29 05:21:26;;;;;;;32.08;18.15;;;;;;;4.76;100.00;99214.00;4991045;28;20034;-71
2023/11/29 05:23:51;;;;;;;29.70;16.90;;;;;;;4.71;100.00;99224.06;4990448;28;20130;-70
2023/11/29 05:26:17;;;;;;;40.63;21.90;;;;;;;4.59;100.00;99203.13;4991312;28;20117;-69
2023/11/29 05:28:42;;;;;;;33.38;18.20;;;;;;;4.65;100.00;99219.56;4991102;28;20027;-69
2023/11/29 05:31:08;;;;;;;33.10;18.27;;;;;;;4.58;100.00;99232.91;4991210;28;20212;-69
2023/11/29 05:33:33;;;;;;;36.05;19.17;;;;;;;4.52;100.00;99247.97;4990727;28;20046;-71
2023/11/29 05:35:59;;;;;;;32.20;18.13;;;;;;;4.49;100.00;99237.66;4990973;28;20109;-70
2023/11/29 05:38:24;;;;;;;31.40;17.85;;;;;;;4.44;100.00;99245.09;4990728;28;20034;-70
2023/11/29 05:40:50;;;;;;;33.17;17.42;;;;;;;4.34;100.00;99246.41;4990982;28;20038;-75
2023/11/29 05:43:15;;;;;;;32.95;22.13;;;;;;;4.38;100.00;99247.41;4990264;28;20037;-69
2023/11/29 05:45:41;;;;;;;32.28;18.83;;;;;;;4.37;100.00;99246.53;4991261;28;20034;-68
2023/11/29 05:48:07;;;;;;;29.73;17.98;;;;;;;4.16;100.00;99208.19;5002708;28;20057;-72
2023/11/29 05:50:33;;;;;;;31.30;17.10;;;;;;;3.97;100.00;99170.78;4990848;28;20038;-69
2023/11/29 05:52:59;;;;;;;60.88;33.38;;;;;;;4.51;100.00;99252.22;4991084;28;20035;-69
2023/11/29 05:55:24;;;;;;;39.95;22.17;;;;;;;4.51;100.00;99259.91;5002773;28;20467;-69
2023/11/29 05:57:50;;;;;;;51.88;31.92;;;;;;;4.51;100.00;99256.44;4991473;28;20500;-70
2023/11/29 06:00:18;;;;;;;54.28;38.55;;;;;;;4.01;100.00;99177.78;4991245;28;20026;-69
2023/11/29 06:02:44;;;;;;;39.17;26.33;;;;;;;4.50;100.00;99249.63;4980927;28;20035;-71
2023/11/29 06:05:10;;;;;;;37.08;25.80;;;;;;;4.58;100.00;99253.34;4979538;28;20486;-71
2023/11/29 06:07:37;;;;;;;44.67;25.95;;;;;;;4.57;100.00;99269.47;4987911;28;20038;-71
2023/11/29 06:10:05;;;;;;;72.45;53.13;;;;;;;4.49;100.00;99271.72;4991388;28;20041;-69
2023/11/29 06:12:33;;;;;;;33.65;22.45;;;;;;;3.84;100.00;99174.50;4991000;28;20040;-70
2023/11/29 06:15:04;;;;;;;28.95;18.30;;;;;;;4.41;100.00;99278.22;4991164;28;20038;-72
2023/11/29 06:17:31;;;;;;;28.35;17.08;;;;;;;4.36;100.00;99278.00;4989876;28;20081;-70
2023/11/29 06:19:57;;;;;;;28.38;16.05;;;;;;;4.44;100.00;99285.13;4989863;28;20467;-73
2023/11/29 06:22:22;;;;;;;30.25;17.63;;;;;;;4.49;100.00;99281.09;4990608;28;20061;-72
2023/11/29 06:24:48;;;;;;;32.63;19.10;;;;;;;4.42;100.00;99277.38;4990424;28;20057;-68
2023/11/29 06:27:13;;;;;;;33.05;19.33;;;;;;;4.40;100.00;99273.00;5005453;28;20034;-70
2023/11/29 06:29:39;;;;;;;31.83;18.23;;;;;;;4.42;100.00;99286.75;4990948;28;20121;-75
2023/11/29 06:32:05;;;;;;;31.05;19.50;;;;;;;4.41;100.00;99287.53;4990372;28;20068;-73
2023/11/29 06:34:30;;;;;;;34.38;18.20;;;;;;;4.40;100.00;99309.69;5004731;28;20406;-70
2023/11/29 06:36:57;;;;;;;29.88;16.85;;;;;;;4.40;100.00;99313.91;4990793;28;20121;-69
2023/11/29 06:39:23;;;;;;;30.75;16.42;;;;;;;4.17;100.00;99280.56;4990872;28;20089;-70
2023/11/29 06:41:48;;;;;;;34.47;18.75;;;;;;;4.40;100.00;99332.69;4990548;28;20441;-72
2023/11/29 06:44:14;;;;;;;34.72;20.65;;;;;;;4.40;100.00;99319.91;5021198;28;20073;-70
2023/11/29 06:46:40;;;;;;;28.95;17.45;;;;;;;3.96;100.00;99240.56;4990670;28;20034;-71
2023/11/29 06:49:07;;;;;;;34.70;19.63;;;;;;;4.52;100.00;99322.09;4990691;28;20496;-69
2023/11/29 06:51:33;;;;;;;30.85;17.65;;;;;;;4.61;100.00;99327.63;5004709;28;20038;-72
2023/11/29 06:53:58;;;;;;;29.60;18.52;;;;;;;4.66;100.00;99315.91;4990705;28;20104;-69
2023/11/29 06:56:24;;;;;;;32.28;21.65;;;;;;;4.56;100.00;99290.75;4990984;28;20077;-74
2023/11/29 06:58:49;;;;;;;30.70;19.40;;;;;;;4.57;100.00;99291.63;4990662;28;20030;-70
2023/11/29 07:01:16;;;;;;;25.10;14.75;;;;;;;4.78;100.00;99324.88;4990303;28;20084;-70
2023/11/29 07:03:41;;;;;;;24.45;14.02;;;;;;;4.79;100.00;99304.47;4990764;28;20030;-70
2023/11/29 07:06:07;;;;;;;23.70;13.27;;;;;;;4.96;100.00;99307.75;4989610;28;20183;-70
2023/11/29 07:08:33;;;;;;;21.92;12.32;;;;;;;5.21;100.00;99323.19;4990635;28;20032;-70
2023/11/29 07:11:04;;;;;;;20.13;10.98;;;;;;;5.24;100.00;99324.19;4990810;28;20022;-70
2023/11/29 07:13:30;;;;;;;20.70;12.80;;;;;;;5.01;100.00;99270.44;4990806;28;20023;-70
2023/11/29 07:15:56;;;;;;;20.92;11.50;;;;;;;5.57;100.00;99336.56;4991325;28;20026;-70
2023/11/29 07:18:25;;;;;;;18.48;10.80;;;;;;;5.73;100.00;99349.94;4993679;28;20023;-70
2023/11/29 07:20:51;;;;;;;18.63;10.25;;;;;;;5.93;100.00;99354.16;4994128;28;20102;-70
2023/11/29 07:23:17;;;;;;;16.25;9.68;;;;;;;6.11;100.00;99350.56;4994266;28;20720;-69
2023/11/29 07:25:43;;;;;;;14.27;8.80;;;;;;;6.28;100.00;99349.47;5007721;28;20038;-69
2023/11/29 07:28:08;;;;;;;15.32;9.20;;;;;;;6.44;100.00;99357.72;4994036;28;20365;-74
2023/11/29 07:30:34;;;;;;;19.10;9.60;;;;;;;6.20;100.00;99284.25;4993954;28;20334;-70
2023/11/29 07:32:59;;;;;;;19.70;11.48;;;;;;;6.72;100.00;99369.81;4993778;28;20058;-70
2023/11/29 07:35:25;;;;;;;17.67;10.32;;;;;;;5.99;100.00;99241.69;4993635;28;20030;-70
2023/11/29 07:37:51;;;;;;;13.30;9.30;;;;;;;6.94;100.00;99391.06;4993668;28;20026;-71
2023/11/29 07:40:16;;;;;;;14.32;9.35;;;;;;;7.05;100.00;99397.44;4993935;28;20052;-69
2023/11/29 07:42:42;;;;;;;12.50;8.52;;;;;;;7.14;100.00;99389.19;4993617;28;20038;-70
2023/11/29 07:45:08;;;;;;;14.05;8.20;;;;;;;7.23;100.00;99389.47;4993635;28;20030;-73
2023/11/29 07:47:33;;;;;;;14.27;9.65;;;;;;;7.29;100.00;99392.25;4993623;28;20026;-70
2023/11/29 07:49:59;;;;;;;18.42;11.15;;;;;;;7.36;100.00;99392.44;4993073;28;20030;-70
2023/11/29 07:52:24;;;;;;;20.30;10.77;;;;;;;6.84;100.00;99278.69;4992824;28;20030;-71
2023/11/29 07:54:50;;;;;;;16.58;9.88;;;;;;;7.03;100.00;99306.69;4993163;28;20026;-70
2023/11/29 07:57:15;;;;;;;14.25;9.32;;;;;;;7.42;100.00;99352.41;4993430;28;20117;-70
2023/11/29 07:59:41;;;;;;;14.68;8.93;;;;;;;7.63;100.00;99381.28;5023464;28;20038;-70
2023/11/29 08:02:07;;;;;;;14.73;9.20;;;;;;;7.73;100.00;99391.06;4992979;28;20022;-73
2023/11/29 08:04:33;;;;;;;13.05;8.35;;;;;;;7.89;100.00;99384.69;4993128;28;20018;-69
2023/11/29 08:06:59;;;;;;;12.85;7.68;;;;;;;7.96;100.00;99375.44;4993093;28;20460;-70
2023/11/29 08:09:25;;;;;;;15.57;8.07;;;;;;;8.18;100.00;99394.94;4992819;28;20038;-69
2023/11/29 08:11:50;;;;;;;8.18;5.32;;;;;;;8.34;100.00;99401.41;4993221;28;20114;-70
2023/11/29 08:14:16;;;;;;;7.55;4.20;;;;;;;8.42;100.00;99411.09;4993150;28;20027;-69
2023/11/29 08:16:42;;;;;;;8.18;4.15;;;;;;;8.44;100.00;99405.97;4993053;28;20026;-70
2023/11/29 08:19:08;;;;;;;6.50;3.97;;;;;;;7.87;100.00;99312.66;4992934;28;20072;-73
2023/11/29 08:21:34;;;;;;;6.88;3.50;;;;;;;8.47;100.00;99407.81;4992768;28;20028;-70
2023/11/29 08:24:00;;;;;;;6.10;3.30;;;;;;;8.53;100.00;99402.84;4992826;28;20022;-69
2023/11/29 08:26:25;;;;;;;5.78;3.60;;;;;;;8.12;100.00;99340.78;4991052;28;20069;-70
2023/11/29 08:28:51;;;;;;;6.75;4.00;;;;;;;8.59;100.00;99403.00;4992723;28;20027;-69
2023/11/29 08:31:17;;;;;;;5.40;3.78;;;;;;;8.61;100.00;99390.19;4992400;28;20109;-73
2023/11/29 08:33:42;;;;;;;5.72;3.80;;;;;;;8.84;100.00;99411.41;4992607;28;20068;-70
2023/11/29 08:36:11;;;;;;;13.85;10.02;;;;;;;8.87;100.00;99422.66;4992766;28;20031;-73
2023/11/29 08:38:37;;;;;;;6.57;4.47;;;;;;;9.01;100.00;99419.53;4992461;28;20030;-70
2023/11/29 08:41:03;;;;;;;5.53;3.85;;;;;;;9.22;100.00;99425.28;4992585;28;20026;-69
2023/11/29 08:43:28;;;;;;;6.93;4.25;;;;;;;9.28;100.00;99432.25;4992405;28;20030;-70
2023/11/29 08:45:54;;;;;;;7.82;4.65;;;;;;;9.43;100.00;99442.06;4992407;28;20128;-71
2023/11/29 08:48:19;;;;;;;7.45;4.72;;;;;;;9.49;100.00;99437.06;4992029;28;20482;-70
2023/11/29 08:50:45;;;;;;;6.50;3.83;;;;;;;9.67;100.00;99454.72;5007327;28;20019;-71
2023/11/29 08:53:10;;;;;;;9.73;5.85;;;;;;;9.58;100.00;99440.72;4991873;28;20030;-70
2023/11/29 08:55:42;;;;;;;12.35;6.50;;;;;;;9.41;100.00;99442.88;4992336;28;20106;-70
2023/11/29 08:58:07;;;;;;;12.93;6.32;;;;;;;9.27;100.00;99450.25;4992200;28;20022;-74
2023/11/29 09:00:33;;;;;;;9.80;6.60;;;;;;;9.32;100.00;99449.56;4992226;28;20080;-71
2023/11/29 09:02:58;;;;;;;8.93;5.95;;;;;;;9.34;100.00;99450.44;4992336;28;20492;-71
2023/11/29 09:05:24;;;;;;;9.98;6.43;;;;;;;9.34;100.00;99437.56;4992180;28;20057;-70
2023/11/29 09:07:51;;;;;;;10.48;6.20;;;;;;;9.45;100.00;99445.56;4992008;28;20058;-71
2023/11/29 09:10:17;;;;;;;10.77;6.47;;;;;;;9.18;100.00;99397.69;4991826;28;20033;-71
2023/11/29 09:12:42;;;;;;;9.75;6.78;;;;;;;9.69;100.00;99428.97;4991806;28;20487;-70
2023/11/29 09:15:09;;;;;;;9.65;6.53;;;;;;;9.79;100.00;99427.47;4991835;28;20042;-69
2023/11/29 09:17:34;;;;;;;12.43;6.22;;;;;;;9.26;100.00;99356.69;4991807;28;20042;-70
2023/11/29 09:20:00;;;;;;;9.63;6.72;;;;;;;9.68;100.00;99417.78;4991972;28;20030;-70
2023/11/29 09:22:26;;;;;;;13.15;6.50;;;;;;;9.58;100.00;99389.19;4991745;28;20473;-70
2023/11/29 09:24:52;;;;;;;10.18;5.82;;;;;;;9.73;100.00;99414.44;4991717;28;20026;-71
2023/11/29 09:27:18;;;;;;;9.38;6.18;;;;;;;10.01;100.00;99415.94;4991630;28;20428;-71
2023/11/29 09:29:44;;;;;;;6.93;4.32;;;;;;;10.25;100.00;99400.13;4991738;28;20465;-71
2023/11/29 09:32:09;;;;;;;5.68;2.90;;;;;;;10.57;100.00;99417.16;4991505;28;20062;-69
2023/11/29 09:34:35;;;;;;;5.18;3.15;;;;;;;10.63;100.00;99400.06;4991489;28;20429;-70
2023/11/29 09:37:00;;;;;;;4.20;2.60;;;;;;;10.83;100.00;99418.50;4991559;28;20030;-70
2023/11/29 09:39:29;;;;;;;5.35;2.95;;;;;;;10.93;100.00;99395.44;4990247;28;20423;-69
2023/11/29 09:42:02;;;;;;;3.80;2.50;;;;;;;11.05;100.00;99405.97;5006153;28;20038;-70
2023/11/29 09:44:28;;;;;;;3.20;2.10;;;;;;;11.15;100.00;99405.31;4989357;28;20022;-69
2023/11/29 09:46:55;;;;;;;3.47;2.10;;;;;;;11.01;100.00;99399.03;4990934;28;20507;-70
2023/11/29 09:49:21;;;;;;;3.42;2.08;;;;;;;11.02;100.00;99402.50;4991311;28;20085;-70
2023/11/29 09:51:47;;;;;;;4.32;2.30;;;;;;;11.12;100.00;99401.81;4990821;28;20114;-70
2023/11/29 09:54:13;;;;;;;4.47;2.67;;;;;;;11.16;100.00;99401.00;4991429;28;20477;-70
2023/11/29 09:56:38;;;;;;;3.75;2.08;;;;;;;11.06;100.00;99374.16;4988922;28;20038;-70
2023/11/29 09:59:04;;;;;;;3.88;1.88;;;;;;;11.31;100.00;99384.91;4991384;28;20031;-70
2023/11/29 10:01:36;;;;;;;3.65;2.35;;;;;;;11.33;100.00;99394.41;4991275;28;20034;-70
2023/11/29 10:04:04;;;;;;;4.05;2.03;;;;;;;10.87;100.00;99312.72;4987441;28;20441;-73
2023/11/29 10:06:30;;;;;;;3.35;2.13;;;;;;;11.39;100.00;99391.06;4990253;28;20030;-72
2023/11/29 10:08:57;;;;;;;4.32;2.45;;;;;;;11.40;100.00;99390.25;4990359;28;20027;-71
2023/11/29 10:11:23;;;;;;;2.85;1.88;;;;;;;11.22;100.00;99326.19;4990648;28;20093;-71
2023/11/29 10:13:48;;;;;;;3.10;1.75;;;;;;;11.45;100.00;99395.47;5004547;28;20481;-70
2023/11/29 10:16:17;;;;;;;3.00;2.10;;;;;;;11.45;100.00;99401.50;4990717;28;20496;-69
2023/11/29 10:18:46;;;;;;;3.13;2.17;;;;;;;11.53;100.00;99398.19;4990729;28;20074;-73
2023/11/29 10:21:11;;;;;;;4.10;2.53;;;;;;;11.52;100.00;99405.06;5002269;28;20046;-70
2023/11/29 10:23:39;;;;;;;3.72;2.10;;;;;;;11.46;100.00;99372.25;4989147;28;20126;-70
2023/11/29 10:26:07;;;;;;;3.72;2.17;;;;;;;11.73;100.00;99393.31;4983643;28;20028;-70
2023/11/29 10:28:33;;;;;;;3.35;2.03;;;;;;;11.60;100.00;99385.38;4981881;28;20039;-71
2023/11/29 10:31:01;;;;;;;4.70;2.20;;;;;;;11.63;100.00;99397.47;4985400;28;20118;-71
2023/11/29 10:33:30;;;;;;;6.05;2.30;;;;;;;11.73;100.00;99401.06;4974662;28;20029;-71
2023/11/29 10:35:57;;;;;;;3.45;2.30;;;;;;;11.61;100.00;99400.03;4982409;28;20069;-70
2023/11/29 10:38:26;;;;;;;3.08;2.13;;;;;;;11.43;100.00;99364.44;4990028;28;20121;-71
2023/11/29 10:40:52;;;;;;;2.90;1.75;;;;;;;11.57;100.00;99390.47;4989789;28;20093;-70
2023/11/29 10:43:26;;;;;;;4.53;1.85;;;;;;;11.78;100.00;99397.69;4990500;28;20033;-71
2023/11/29 10:45:59;;;;;;;4.32;2.00;;;;;;;11.94;100.00;99395.34;4974939;28;20498;-69
2023/11/29 10:48:27;;;;;;;5.60;2.17;;;;;;;12.01;100.00;99406.66;4971012;28;20030;-72
2023/11/29 10:50:53;;;;;;;2.45;1.77;;;;;;;11.74;100.00;99375.22;4974082;28;20027;-72
2023/11/29 10:53:19;;;;;;;5.10;2.60;;;;;;;11.84;100.00;99389.16;4975086;28;20121;-71
2023/11/29 10:55:47;;;;;;;4.55;2.40;;;;;;;11.91;100.00;99390.13;4974973;28;20481;-70
2023/11/29 10:58:45;;;;;;;6.82;4.55;;;;;;;12.09;100.00;99385.22;4980279;28;20087;-71
2023/11/29 11:01:12;;;;;;;8.68;2.72;;;;;;;12.30;100.00;99363.06;4989728;28;20042;-72
2023/11/29 11:03:46;;;;;;;7.85;3.10;;;;;;;12.50;100.00;99371.06;4981617;28;20121;-74
2023/11/29 11:06:23;;;;;;;5.00;3.45;;;;;;;12.25;100.00;99292.25;4981506;28;20039;-72
2023/11/29 11:08:53;;;;;;;5.90;3.03;;;;;;;12.83;100.00;99380.03;4974184;28;20505;-72
2023/11/29 11:11:46;;;;;;;3.60;2.20;;;;;;;12.82;100.00;99362.75;4972109;28;20035;-70
2023/11/29 11:14:21;;;;;;;3.90;2.45;;;;;;;12.71;100.00;99385.97;4914381;29;20122;-71
2023/11/29 11:17:02;;;;;;;4.00;2.17;;;;;;;12.45;100.00;99324.41;4910822;29;20044;-74